Time;durP1;ratioP1;P1;durP2;ratioP2;P2;SDS_P1;SDS_P2;PMS_P1;PMS_P2;Temp;Humidity;BMP_temperature;BMP_pressure;BME280_temperature;BME280_humidity;BME280_pressure;Samples;Min_cycle;Max_cycle;Signal;HPM_P1;HPM_P2
2021/04/19 00:00:13;;;;;;;32.03;20.20;;;7.40;99.90;;;;;;5063841;28;20229;-84
2021/04/19 00:02:39;;;;;;;29.90;19.05;;;7.00;99.90;;;;;;5063253;28;20234;-85
2021/04/19 00:05:07;;;;;;;33.05;21.67;;;7.00;99.90;;;;;;5067157;28;20214;-85
2021/04/19 00:07:33;;;;;;;32.15;21.17;;;6.90;99.90;;;;;;5063532;28;20207;-84
2021/04/19 00:10:00;;;;;;;28.60;20.67;;;6.80;99.90;;;;;;5071013;28;20604;-85
2021/04/19 00:12:26;;;;;;;35.40;21.92;;;6.80;99.90;;;;;;5071507;28;20223;-84
2021/04/19 00:14:52;;;;;;;30.10;20.02;;;7.00;99.90;;;;;;5071261;28;20207;-85
2021/04/19 00:17:19;;;;;;;29.48;19.88;;;6.90;99.90;;;;;;5071153;28;20246;-85
2021/04/19 00:19:45;;;;;;;34.63;20.60;;;6.80;99.90;;;;;;5069949;28;20234;-84
2021/04/19 00:22:11;;;;;;;30.35;20.00;;;6.80;99.90;;;;;;5070046;28;20594;-85
2021/04/19 00:24:37;;;;;;;31.20;20.35;;;6.80;99.90;;;;;;5073509;28;20211;-85
2021/04/19 00:27:05;;;;;;;31.98;20.63;;;6.50;99.90;;;;;;5076845;28;20211;-84
2021/04/19 00:29:31;;;;;;;30.73;20.95;;;6.80;99.90;;;;;;5076657;28;20218;-84
2021/04/19 00:31:57;;;;;;;32.25;22.55;;;7.00;99.90;;;;;;5072684;28;20257;-85
2021/04/19 00:34:23;;;;;;;32.08;21.63;;;6.80;99.90;;;;;;5070673;28;20214;-84
2021/04/19 00:36:49;;;;;;;33.22;20.95;;;6.80;99.90;;;;;;5069493;28;20281;-86
2021/04/19 00:39:15;;;;;;;30.45;19.75;;;6.80;99.90;;;;;;5068394;28;20252;-85
2021/04/19 00:41:42;;;;;;;30.70;20.80;;;6.90;99.90;;;;;;5071908;28;20246;-85
2021/04/19 00:44:09;;;;;;;33.42;20.38;;;7.00;99.90;;;;;;5068879;28;20218;-84
2021/04/19 00:46:36;;;;;;;31.75;22.33;;;6.70;99.90;;;;;;5071005;28;20285;-85
2021/04/19 00:49:02;;;;;;;27.20;19.27;;;6.80;99.90;;;;;;5072337;28;20199;-84
2021/04/19 00:51:29;;;;;;;31.05;20.73;;;7.00;99.90;;;;;;5066967;28;20227;-84
2021/04/19 00:53:55;;;;;;;31.15;20.58;;;6.80;99.90;;;;;;5064521;28;20203;-84
2021/04/19 00:56:22;;;;;;;37.92;21.60;;;6.80;99.90;;;;;;5063096;28;20240;-84
2021/04/19 00:58:48;;;;;;;32.10;21.92;;;6.60;99.90;;;;;;5062700;28;20206;-83
2021/04/19 01:01:17;;;;;;;32.80;21.45;;;6.80;99.90;;;;;;5062517;28;20223;-84
2021/04/19 01:03:44;;;;;;;32.95;21.30;;;6.80;99.90;;;;;;5063118;28;20203;-83
2021/04/19 01:06:11;;;;;;;30.55;21.08;;;6.80;99.90;;;;;;5067315;28;20206;-83
2021/04/19 01:08:38;;;;;;;30.92;21.48;;;6.80;99.90;;;;;;5066587;28;20207;-84
2021/04/19 01:11:05;;;;;;;30.00;21.55;;;6.70;99.90;;;;;;5062607;28;20223;-84
2021/04/19 01:13:31;;;;;;;29.92;20.50;;;6.70;99.90;;;;;;5061793;28;20203;-84
2021/04/19 01:15:58;;;;;;;33.70;21.45;;;6.70;99.90;;;;;;5061738;28;20253;-84
2021/04/19 01:18:25;;;;;;;33.75;21.35;;;7.20;99.90;;;;;;5061188;28;20218;-83
2021/04/19 01:20:52;;;;;;;35.65;22.02;;;6.60;99.90;;;;;;5061940;28;20215;-83
2021/04/19 01:23:19;;;;;;;32.88;20.95;;;7.00;99.90;;;;;;5060775;28;20203;-83
2021/04/19 01:25:47;;;;;;;34.70;20.20;;;6.80;99.90;;;;;;5063110;28;20618;-83
2021/04/19 01:28:16;;;;;;;29.30;20.48;;;6.80;99.90;;;;;;5071776;28;20317;-84
2021/04/19 01:30:44;;;;;;;31.65;20.15;;;6.60;99.90;;;;;;5071408;28;20226;-84
2021/04/19 01:33:10;;;;;;;26.90;19.10;;;;;;;;;;5068866;28;20218;-85
2021/04/19 01:35:37;;;;;;;32.50;20.35;;;6.70;99.90;;;;;;5070284;28;20203;-84
2021/04/19 01:38:05;;;;;;;28.02;19.23;;;6.40;99.90;;;;;;5062966;28;20199;-84
2021/04/19 01:40:31;;;;;;;33.85;22.75;;;6.90;99.90;;;;;;5068837;28;20191;-84
2021/04/19 01:42:57;;;;;;;29.02;20.15;;;6.70;99.90;;;;;;5077379;28;20187;-84
2021/04/19 01:45:24;;;;;;;32.75;21.60;;;6.80;99.90;;;;;;5071654;28;20195;-84
2021/04/19 01:47:50;;;;;;;36.78;21.08;;;6.70;99.90;;;;;;5063646;28;20210;-84
2021/04/19 01:50:22;;;;;;;29.20;20.15;;;6.70;99.90;;;;;;5076509;28;20186;-84
2021/04/19 01:52:49;;;;;;;32.50;20.85;;;6.70;99.90;;;;;;5073098;28;20227;-84
2021/04/19 01:55:18;;;;;;;33.95;20.60;;;6.80;99.90;;;;;;5067954;28;20234;-84
2021/04/19 01:57:54;;;;;;;34.05;20.85;;;6.40;99.90;;;;;;5074129;28;20199;-84
2021/04/19 02:00:48;;;;;;;33.65;22.95;;;6.80;99.90;;;;;;5076108;28;20203;-84
2021/04/19 02:03:29;;;;;;;37.45;22.73;;;6.70;99.90;;;;;;5061813;28;20617;-83
2021/04/19 02:06:32;;;;;;;35.88;21.48;;;6.70;99.90;;;;;;5063185;28;20199;-84
2021/04/19 02:09:33;;;;;;;36.00;21.55;;;6.70;99.90;;;;;;5061771;28;20213;-84
2021/04/19 02:12:10;;;;;;;34.13;22.95;;;6.70;99.90;;;;;;5061734;28;20244;-83
2021/04/19 02:14:48;;;;;;;30.35;20.33;;;6.70;99.90;;;;;;5060738;28;20186;-84
2021/04/19 02:17:27;;;;;;;36.28;21.40;;;6.70;99.90;;;;;;5061927;28;20203;-84
2021/04/19 02:20:01;;;;;;;31.67;21.23;;;6.30;99.90;;;;;;5061698;28;20189;-84
2021/04/19 02:22:31;;;;;;;37.95;23.23;;;6.50;99.90;;;;;;5061722;28;20660;-83
2021/04/19 02:25:05;;;;;;;30.88;21.50;;;6.30;99.90;;;;;;5068584;28;20194;-83
2021/04/19 02:27:39;;;;;;;33.00;22.20;;;6.30;99.90;;;;;;5064702;28;20209;-83
2021/04/19 02:30:08;;;;;;;30.10;21.20;;;6.40;99.90;;;;;;5059498;28;20550;-84
2021/04/19 02:32:36;;;;;;;30.83;19.40;;;6.20;99.90;;;;;;5056052;28;20223;-84
2021/04/19 02:35:07;;;;;;;32.97;22.60;;;6.00;99.90;;;;;;5056590;28;20261;-84
2021/04/19 02:37:35;;;;;;;29.63;21.17;;;6.20;99.90;;;;;;5056933;28;20183;-83
2021/04/19 02:40:03;;;;;;;31.45;21.77;;;6.10;99.90;;;;;;5063160;28;20210;-84
2021/04/19 02:42:33;;;;;;;34.13;21.30;;;6.10;99.90;;;;;;5062447;28;20234;-83
2021/04/19 02:45:02;;;;;;;30.13;21.50;;;6.10;99.90;;;;;;5063953;28;20245;-83
2021/04/19 02:47:29;;;;;;;31.80;22.42;;;5.80;99.90;;;;;;5065016;28;20236;-84
2021/04/19 02:49:56;;;;;;;33.50;22.95;;;6.00;99.90;;;;;;5064284;28;20207;-84
2021/04/19 02:52:23;;;;;;;35.20;21.52;;;5.20;99.90;;;;;;5063727;28;20229;-84
2021/04/19 02:54:50;;;;;;;31.80;23.30;;;6.00;99.90;;;;;;5064850;28;20210;-83
2021/04/19 02:57:24;;;;;;;33.70;21.92;;;6.00;99.90;;;;;;5065903;28;20650;-84
2021/04/19 02:59:52;;;;;;;35.28;24.02;;;6.80;99.90;;;;;;5065196;28;20558;-83
2021/04/19 03:02:21;;;;;;;34.00;22.00;;;6.00;99.90;;;;;;5070219;28;20230;-83
2021/04/19 03:04:47;;;;;;;33.97;23.55;;;6.10;99.90;;;;;;5067135;28;20203;-84
2021/04/19 03:07:15;;;;;;;34.95;23.00;;;6.10;99.90;;;;;;5066781;28;20206;-83
2021/04/19 03:09:47;;;;;;;29.80;22.05;;;6.20;99.90;;;;;;5065742;28;20203;-84
2021/04/19 03:12:15;;;;;;;36.28;22.50;;;7.00;99.90;;;;;;5065268;28;20256;-83
2021/04/19 03:14:48;;;;;;;30.40;22.08;;;6.50;99.90;;;;;;5065784;28;20219;-83
2021/04/19 03:17:16;;;;;;;33.15;20.95;;;6.00;99.90;;;;;;5065128;28;20662;-82
2021/04/19 03:19:48;;;;;;;32.15;22.02;;;6.30;99.90;;;;;;5073425;28;20190;-82
2021/04/19 03:22:18;;;;;;;33.97;21.95;;;6.00;99.90;;;;;;5081383;28;20223;-82
2021/04/19 03:24:46;;;;;;;35.53;22.90;;;6.00;99.90;;;;;;5075027;28;20306;-82
2021/04/19 03:27:12;;;;;;;32.17;22.50;;;6.50;99.90;;;;;;5069159;28;20234;-82
2021/04/19 03:29:41;;;;;;;33.92;21.30;;;6.30;99.90;;;;;;5068369;28;20604;-82
2021/04/19 03:32:12;;;;;;;27.73;20.45;;;6.10;99.90;;;;;;5068534;28;20231;-83
2021/04/19 03:34:41;;;;;;;27.27;20.00;;;6.20;99.90;;;;;;5067902;28;20202;-83
2021/04/19 03:37:13;;;;;;;31.45;21.10;;;6.30;99.90;;;;;;5068646;28;20207;-84
2021/04/19 03:39:40;;;;;;;30.65;20.38;;;6.10;99.90;;;;;;5068650;28;20539;-83
2021/04/19 03:42:08;;;;;;;30.75;21.23;;;6.10;99.90;;;;;;5095198;22;20230;-80
2021/04/19 03:44:38;;;;;;;30.95;20.75;;;6.10;99.90;;;;;;5075688;28;20203;-79
2021/04/19 03:47:05;;;;;;;30.63;22.27;;;6.10;99.90;;;;;;5074303;28;20439;-79
2021/04/19 03:49:35;;;;;;;34.90;23.50;;;6.10;99.90;;;;;;5073381;28;20199;-81
2021/04/19 03:52:03;;;;;;;29.25;20.65;;;6.10;99.90;;;;;;5070891;28;20712;-79
2021/04/19 03:54:34;;;;;;;32.03;22.30;;;6.10;99.90;;;;;;5069602;28;20202;-80
2021/04/19 03:57:03;;;;;;;30.58;21.27;;;6.10;99.90;;;;;;5062863;28;20195;-81
2021/04/19 03:59:30;;;;;;;30.35;21.60;;;5.90;99.90;;;;;;5058766;28;20701;-81
2021/04/19 04:02:00;;;;;;;27.65;20.33;;;6.10;99.90;;;;;;5058859;28;20221;-81
2021/04/19 04:04:28;;;;;;;30.05;20.50;;;6.10;99.90;;;;;;5060221;28;20198;-81
2021/04/19 04:06:56;;;;;;;25.88;19.58;;;6.20;99.90;;;;;;5064956;28;20205;-79
2021/04/19 04:09:23;;;;;;;26.40;18.48;;;6.20;99.90;;;;;;5067054;28;20203;-79
2021/04/19 04:11:50;;;;;;;31.27;19.85;;;5.30;99.90;;;;;;5064616;28;20226;-81
2021/04/19 04:14:16;;;;;;;29.52;19.13;;;6.10;99.90;;;;;;5059198;28;20199;-81
2021/04/19 04:16:43;;;;;;;26.90;19.75;;;6.10;99.90;;;;;;5058749;28;20440;-81
2021/04/19 04:19:10;;;;;;;26.08;18.67;;;6.10;99.90;;;;;;5058907;28;20238;-81
2021/04/19 04:21:37;;;;;;;31.38;19.55;;;6.10;99.90;;;;;;5058758;28;20223;-81
2021/04/19 04:24:07;;;;;;;24.30;18.48;;;6.10;99.90;;;;;;5060271;28;20234;-83
2021/04/19 04:26:34;;;;;;;26.85;18.38;;;6.10;99.90;;;;;;5060350;28;20261;-81
2021/04/19 04:29:01;;;;;;;26.52;19.05;;;6.10;99.90;;;;;;5059406;28;20624;-82
2021/04/19 04:31:27;;;;;;;24.75;17.13;;;6.20;99.90;;;;;;5058689;28;20238;-81
2021/04/19 04:33:54;;;;;;;25.13;18.65;;;6.00;99.90;;;;;;5059855;28;20740;-82
2021/04/19 04:36:20;;;;;;;29.38;18.88;;;6.00;99.90;;;;;;5059898;28;20203;-82
2021/04/19 04:38:47;;;;;;;26.77;18.42;;;6.00;99.90;;;;;;5060070;28;20562;-82
2021/04/19 04:41:13;;;;;;;27.52;16.85;;;6.10;99.90;;;;;;5059647;28;20275;-82
2021/04/19 04:43:42;;;;;;;25.23;18.48;;;6.10;99.90;;;;;;5072422;28;20214;-80
2021/04/19 04:46:15;;;;;;;25.63;17.58;;;6.10;99.90;;;;;;5073958;28;20203;-80
2021/04/19 04:48:46;;;;;;;29.50;17.33;;;5.70;99.90;;;;;;5073287;28;20187;-80
2021/04/19 04:51:17;;;;;;;23.92;18.05;;;6.00;99.90;;;;;;5073440;28;20230;-80
2021/04/19 04:53:49;;;;;;;22.95;17.52;;;6.10;99.90;;;;;;5078588;28;20202;-79
2021/04/19 04:56:17;;;;;;;22.63;17.35;;;6.20;99.90;;;;;;5077830;28;20176;-79
2021/04/19 04:58:45;;;;;;;26.23;17.85;;;6.30;99.90;;;;;;5078555;28;20199;-81
2021/04/19 05:01:13;;;;;;;22.50;16.90;;;6.20;99.90;;;;;;5077054;28;20723;-80
2021/04/19 05:03:41;;;;;;;25.13;18.00;;;6.00;99.90;;;;;;5076315;28;20211;-82
2021/04/19 05:06:08;;;;;;;25.48;17.88;;;6.10;99.90;;;;;;5061719;28;20234;-82
2021/04/19 05:08:37;;;;;;;25.80;18.70;;;6.30;99.90;;;;;;5066921;28;20271;-82
2021/04/19 05:11:03;;;;;;;26.92;18.20;;;6.30;99.90;;;;;;5066023;28;20219;-83
2021/04/19 05:13:29;;;;;;;23.67;17.48;;;6.40;99.90;;;;;;5061827;28;20223;-83
2021/04/19 05:15:56;;;;;;;26.58;19.17;;;6.50;99.90;;;;;;5060054;28;20562;-81
2021/04/19 05:18:23;;;;;;;24.35;18.23;;;6.50;99.90;;;;;;5058860;28;20242;-82
2021/04/19 05:20:49;;;;;;;25.83;18.90;;;6.60;99.90;;;;;;5059698;28;20199;-82
2021/04/19 05:23:16;;;;;;;23.25;18.27;;;6.60;99.90;;;;;;5059106;28;20295;-81
2021/04/19 05:25:43;;;;;;;24.63;17.65;;;6.60;99.90;;;;;;5059867;28;20206;-82
2021/04/19 05:28:09;;;;;;;28.95;18.10;;;6.60;99.90;;;;;;5060948;28;20207;-82
2021/04/19 05:30:36;;;;;;;26.38;18.80;;;6.60;99.90;;;;;;5063775;28;20214;-82
2021/04/19 05:33:04;;;;;;;30.65;19.67;;;6.70;99.90;;;;;;5060322;28;20594;-82
2021/04/19 05:35:32;;;;;;;29.00;20.23;;;6.70;99.90;;;;;;5062595;28;20207;-83
2021/04/19 05:37:58;;;;;;;27.02;18.13;;;6.80;99.90;;;;;;5061939;28;20202;-82
2021/04/19 05:40:26;;;;;;;26.95;18.70;;;6.80;99.90;;;;;;5064304;28;20214;-84
2021/04/19 05:42:52;;;;;;;26.08;20.38;;;6.80;99.90;;;;;;5065215;28;20230;-83
2021/04/19 05:45:18;;;;;;;22.35;17.10;;;6.80;99.90;;;;;;5074677;28;20199;-82
2021/04/19 05:47:45;;;;;;;29.67;19.70;;;6.60;99.90;;;;;;5077162;28;20214;-81
2021/04/19 05:50:14;;;;;;;26.27;17.25;;;6.10;99.90;;;;;;5068431;28;20673;-81
2021/04/19 05:52:41;;;;;;;27.10;18.85;;;7.00;99.90;;;;;;5060757;28;20262;-82
2021/04/19 05:55:09;;;;;;;31.23;20.95;;;7.10;99.90;;;;;;5061034;28;20692;-82
2021/04/19 05:57:44;;;;;;;27.02;20.13;;;7.10;99.90;;;;;;5061633;28;20665;-82
2021/04/19 06:00:18;;;;;;;24.65;18.52;;;7.20;99.90;;;;;;5060332;28;20194;-82
2021/04/19 06:02:56;;;;;;;31.67;19.70;;;7.20;99.90;;;;;;5060820;28;20234;-81
2021/04/19 06:05:27;;;;;;;28.80;20.92;;;7.20;99.90;;;;;;5060207;28;20710;-81
2021/04/19 06:08:04;;;;;;;27.17;18.27;;;7.20;99.90;;;;;;5060822;28;20198;-83
2021/04/19 06:10:36;;;;;;;28.17;19.80;;;7.30;99.90;;;;;;5072773;28;20183;-81
2021/04/19 06:13:03;;;;;;;24.70;18.25;;;7.30;99.90;;;;;;5076638;28;20230;-81
2021/04/19 06:15:30;;;;;;;27.30;19.70;;;7.30;99.90;;;;;;5076832;28;20198;-82
2021/04/19 06:17:58;;;;;;;24.98;18.67;;;7.30;99.90;;;;;;5062525;28;20203;-83
2021/04/19 06:20:25;;;;;;;30.52;20.20;;;7.40;99.90;;;;;;5069196;28;20202;-83
2021/04/19 06:22:53;;;;;;;27.30;19.10;;;7.40;99.90;;;;;;5062704;28;20223;-82
2021/04/19 06:25:21;;;;;;;25.05;19.23;;;7.40;99.90;;;;;;5059031;28;20210;-82
2021/04/19 06:27:47;;;;;;;26.13;19.20;;;7.50;99.90;;;;;;5058928;28;20207;-82
2021/04/19 06:30:16;;;;;;;26.13;19.42;;;7.70;99.90;;;;;;5059228;28;20288;-81
2021/04/19 06:32:48;;;;;;;28.20;19.98;;;7.50;99.90;;;;;;5059876;28;20736;-82
2021/04/19 06:35:16;;;;;;;25.97;18.00;;;7.60;99.90;;;;;;5063008;28;20553;-83
2021/04/19 06:37:48;;;;;;;30.00;19.15;;;7.60;99.90;;;;;;5061649;28;20457;-81
2021/04/19 06:40:15;;;;;;;26.23;20.77;;;7.70;99.90;;;;;;5068594;28;20202;-80
2021/04/19 06:42:42;;;;;;;25.60;18.93;;;7.80;99.90;;;;;;5061572;28;20249;-79
2021/04/19 06:45:12;;;;;;;26.70;18.27;;;7.90;99.90;;;;;;5063252;28;20424;-81
2021/04/19 06:47:40;;;;;;;29.07;19.80;;;8.10;99.90;;;;;;5060940;28;20446;-82
2021/04/19 06:50:08;;;;;;;24.47;18.93;;;8.20;99.90;;;;;;5061134;28;20820;-82
2021/04/19 06:52:34;;;;;;;22.77;17.85;;;8.40;99.90;;;;;;5060600;28;20554;-81
2021/04/19 06:55:01;;;;;;;26.17;20.45;;;;;;;;;;5059153;28;20198;-81
2021/04/19 06:57:32;;;;;;;26.40;19.60;;;8.50;99.90;;;;;;5059827;28;20203;-83
2021/04/19 07:00:01;;;;;;;31.03;19.83;;;8.40;99.90;;;;;;5059768;28;20438;-82
2021/04/19 07:02:29;;;;;;;27.57;19.87;;;8.50;99.90;;;;;;5059473;28;20462;-82
2021/04/19 07:04:58;;;;;;;31.40;20.53;;;8.50;99.90;;;;;;5059486;28;20492;-82
2021/04/19 07:07:29;;;;;;;29.40;21.40;;;8.70;99.90;;;;;;5063856;28;20458;-82
2021/04/19 07:09:59;;;;;;;32.23;21.47;;;8.70;99.90;;;;;;5070898;28;20404;-82
2021/04/19 07:12:27;;;;;;;27.87;20.17;;;8.70;99.90;;;;;;5072245;28;20481;-81
2021/04/19 07:14:54;;;;;;;31.27;20.83;;;8.80;99.90;;;;;;5072883;28;20427;-81
2021/04/19 07:17:22;;;;;;;33.07;22.73;;;9.00;99.90;;;;;;5070353;28;20453;-82
2021/04/19 07:19:48;;;;;;;34.07;22.03;;;8.80;99.90;;;;;;5070063;28;20420;-80
2021/04/19 07:22:16;;;;;;;35.27;21.63;;;9.10;99.90;;;;;;5070036;28;20464;-80
2021/04/19 07:24:42;;;;;;;29.77;21.27;;;8.90;99.90;;;;;;5071304;28;20517;-82
2021/04/19 07:27:11;;;;;;;30.43;22.60;;;9.10;99.90;;;;;;5072017;28;20430;-79
2021/04/19 07:29:37;;;;;;;35.33;24.17;;;9.00;99.90;;;;;;5072824;28;20903;-81
2021/04/19 07:32:04;;;;;;;37.77;21.90;;;9.00;99.90;;;;;;5071528;28;20482;-80
2021/04/19 07:34:31;;;;;;;38.80;25.10;;;9.50;99.90;;;;;;5070227;28;20456;-81
2021/04/19 07:37:00;;;;;;;34.80;23.77;;;9.10;99.90;;;;;;5070042;28;20446;-80
2021/04/19 07:39:28;;;;;;;31.83;20.90;;;9.20;99.90;;;;;;5068817;28;20445;-80
2021/04/19 07:41:56;;;;;;;31.03;20.77;;;9.50;99.90;;;;;;5065589;28;20963;-82
2021/04/19 07:44:36;;;;;;;30.67;21.23;;;9.40;99.90;;;;;;5064024;28;20445;-81
2021/04/19 07:47:23;;;;;;;27.93;20.10;;;9.70;99.90;;;;;;5064544;28;20431;-83
2021/04/19 07:50:02;;;;;;;30.90;20.30;;;9.40;99.90;;;;;;5064226;28;20908;-79
2021/04/19 07:52:30;;;;;;;28.63;21.50;;;9.40;99.90;;;;;;5065390;28;20590;-82
2021/04/19 07:55:12;;;;;;;28.53;20.13;;;9.60;99.90;;;;;;5071887;28;20468;-82
2021/04/19 07:57:39;;;;;;;29.47;21.93;;;9.30;99.90;;;;;;5064107;28;20445;-82
2021/04/19 08:00:07;;;;;;;35.83;22.00;;;9.30;99.90;;;;;;5060952;28;20446;-81
2021/04/19 08:02:33;;;;;;;28.40;20.30;;;9.40;99.90;;;;;;5060036;28;20833;-83
2021/04/19 08:05:04;;;;;;;28.40;19.60;;;9.20;99.90;;;;;;5060212;28;20476;-81
2021/04/19 08:07:31;;;;;;;25.40;20.33;;;9.10;99.90;;;;;;5060687;28;20476;-81
2021/04/19 08:09:59;;;;;;;29.90;19.70;;;9.10;99.90;;;;;;5061971;28;20456;-82
2021/04/19 08:12:43;;;;;;;28.77;20.73;;;9.10;99.90;;;;;;5061635;28;21018;-81
2021/04/19 08:15:12;;;;;;;25.70;19.27;;;9.30;99.90;;;;;;5063261;28;20431;-81
2021/04/19 08:17:40;;;;;;;32.00;22.77;;;9.20;99.90;;;;;;5065376;28;20420;-80
2021/04/19 08:20:09;;;;;;;27.60;21.30;;;9.40;99.90;;;;;;5062911;28;20457;-80
2021/04/19 08:22:36;;;;;;;29.27;21.57;;;9.40;99.90;;;;;;5062058;28;20444;-80
2021/04/19 08:25:12;;;;;;;30.67;21.60;;;9.10;99.90;;;;;;5062470;28;20435;-81
2021/04/19 08:27:45;;;;;;;34.83;23.50;;;8.80;99.90;;;;;;5062614;28;20427;-81
2021/04/19 08:30:13;;;;;;;35.53;21.30;;;9.50;99.90;;;;;;5069679;28;20433;-79
2021/04/19 08:32:40;;;;;;;31.87;22.57;;;9.60;99.90;;;;;;5071817;28;21011;-79
2021/04/19 08:35:08;;;;;;;38.13;22.67;;;9.80;99.90;;;;;;5068007;28;20475;-81
2021/04/19 08:37:34;;;;;;;29.57;22.17;;;10.20;99.90;;;;;;5062681;28;20468;-80
2021/04/19 08:40:03;;;;;;;34.77;24.93;;;10.30;99.90;;;;;;5065321;28;20424;-82
2021/04/19 08:42:31;;;;;;;32.97;22.00;;;10.30;99.90;;;;;;5069034;28;20477;-80
2021/04/19 08:44:59;;;;;;;31.00;22.47;;;10.40;99.90;;;;;;5063941;28;20798;-80
2021/04/19 08:47:29;;;;;;;34.63;21.60;;;10.50;99.90;;;;;;5062480;28;20446;-82
2021/04/19 08:49:56;;;;;;;27.17;21.23;;;10.30;99.90;;;;;;5060938;28;20432;-81
2021/04/19 08:52:23;;;;;;;28.10;20.83;;;10.20;99.90;;;;;;5061258;28;20485;-82
2021/04/19 08:54:50;;;;;;;30.23;19.83;;;10.20;99.90;;;;;;5061227;28;20454;-79
2021/04/19 08:57:20;;;;;;;31.50;21.97;;;10.10;99.90;;;;;;5069287;28;20446;-82
2021/04/19 08:59:47;;;;;;;27.13;22.33;;;10.20;99.90;;;;;;5070095;28;20446;-80
2021/04/19 09:02:15;;;;;;;26.87;19.00;;;10.30;99.90;;;;;;5067583;28;20464;-79
2021/04/19 09:04:41;;;;;;;27.77;19.17;;;10.30;99.90;;;;;;5068762;28;20453;-81
2021/04/19 09:07:09;;;;;;;30.77;22.50;;;10.20;99.90;;;;;;5069316;28;20454;-79
2021/04/19 09:09:40;;;;;;;27.97;22.77;;;10.10;99.90;;;;;;5067428;28;20855;-81
2021/04/19 09:12:24;;;;;;;31.57;24.67;;;10.40;99.90;;;;;;5070104;28;20568;-81
2021/04/19 09:14:51;;;;;;;33.33;22.63;;;10.60;99.90;;;;;;5068898;28;20515;-81
2021/04/19 09:17:24;;;;;;;36.33;24.50;;;10.70;99.90;;;;;;5066564;28;20440;-82
2021/04/19 09:19:59;;;;;;;36.53;25.80;;;10.90;99.90;;;;;;5065950;28;20460;-80
2021/04/19 09:22:26;;;;;;;36.20;25.40;;;11.30;99.90;;;;;;5071053;28;20542;-78
2021/04/19 09:25:05;;;;;;;32.00;23.57;;;10.90;99.90;;;;;;5070095;28;20528;-79
2021/04/19 09:27:49;;;;;;;35.57;26.40;;;10.70;99.90;;;;;;5070367;28;20442;-79
2021/04/19 09:30:34;;;;;;;38.57;25.67;;;11.10;99.90;;;;;;5070489;28;20430;-80
2021/04/19 09:33:23;;;;;;;32.33;22.77;;;10.80;99.90;;;;;;5070344;28;20508;-81
2021/04/19 09:35:50;;;;;;;35.67;24.50;;;10.60;99.90;;;;;;5068735;28;20436;-79
2021/04/19 09:38:33;;;;;;;34.33;24.70;;;10.70;99.90;;;;;;5071260;28;20449;-79
2021/04/19 09:41:01;;;;;;;31.37;22.23;;;10.80;99.90;;;;;;5063024;28;20446;-80
2021/04/19 09:43:40;;;;;;;33.43;23.33;;;10.90;99.90;;;;;;5073232;22;20504;-79
2021/04/19 09:46:08;;;;;;;28.60;22.10;;;11.00;99.90;;;;;;5062592;28;20455;-78
2021/04/19 09:48:46;;;;;;;31.57;22.13;;;11.20;99.90;;;;;;5056868;28;20452;-78
2021/04/19 09:51:28;;;;;;;31.20;22.60;;;11.30;99.90;;;;;;5054259;28;20565;-78
2021/04/19 09:54:04;;;;;;;33.37;23.63;;;11.40;99.90;;;;;;5039435;28;20492;-80
2021/04/19 09:56:35;;;;;;;33.07;22.90;;;11.30;99.90;;;;;;5040723;28;20431;-80
2021/04/19 09:59:02;;;;;;;32.70;23.70;;;11.30;99.90;;;;;;5038360;28;20466;-80
2021/04/19 10:01:29;;;;;;;30.77;23.83;;;11.20;99.90;;;;;;5038366;28;20449;-79
2021/04/19 10:03:57;;;;;;;37.63;24.90;;;11.30;99.90;;;;;;5037730;28;20458;-79
2021/04/19 10:06:37;;;;;;;33.67;25.07;;;11.30;99.90;;;;;;5039145;28;20538;-79
2021/04/19 10:09:08;;;;;;;34.23;25.20;;;11.00;99.90;;;;;;5038622;28;20937;-79
2021/04/19 10:11:41;;;;;;;35.30;25.33;;;11.80;99.90;;;;;;5038304;28;20879;-79
2021/04/19 10:14:09;;;;;;;34.60;25.40;;;11.60;99.90;;;;;;5037616;28;20431;-79
2021/04/19 10:16:40;;;;;;;38.70;27.67;;;11.60;99.90;;;;;;5039472;28;20454;-80
2021/04/19 10:19:06;;;;;;;47.50;27.17;;;11.60;99.90;;;;;;5044788;28;20485;-80
2021/04/19 10:21:33;;;;;;;36.10;24.73;;;12.10;99.90;;;;;;5038434;28;20477;-78
2021/04/19 10:23:59;;;;;;;30.07;22.37;;;11.80;99.90;;;;;;5039425;28;20454;-79
2021/04/19 10:26:38;;;;;;;28.83;22.60;;;11.80;99.90;;;;;;5042337;28;20469;-79
2021/04/19 10:29:17;;;;;;;30.63;22.90;;;11.70;99.90;;;;;;5043199;28;20782;-79
2021/04/19 10:31:51;;;;;;;30.53;23.70;;;11.60;99.90;;;;;;5043634;28;20565;-78
2021/04/19 10:34:18;;;;;;;32.80;23.97;;;11.60;99.90;;;;;;5042836;28;20532;-78
2021/04/19 10:36:47;;;;;;;32.40;22.40;;;11.60;99.90;;;;;;5040418;28;20461;-80
2021/04/19 10:39:15;;;;;;;33.80;24.50;;;11.80;99.90;;;;;;5038897;28;20457;-79
2021/04/19 10:41:43;;;;;;;29.50;22.73;;;11.40;99.90;;;;;;5042111;28;21059;-81
2021/04/19 10:44:10;;;;;;;30.50;22.53;;;11.00;99.90;;;;;;5042369;28;20411;-82
2021/04/19 10:46:39;;;;;;;30.20;22.40;;;11.10;99.90;;;;;;5040950;28;20505;-81
2021/04/19 10:49:06;;;;;;;35.03;24.30;;;11.20;99.90;;;;;;5040103;28;20438;-82
2021/04/19 10:51:34;;;;;;;33.17;25.30;;;11.50;99.90;;;;;;5039826;28;20485;-81
2021/04/19 10:54:02;;;;;;;32.17;23.60;;;11.20;99.90;;;;;;5042405;28;20961;-81
2021/04/19 10:56:29;;;;;;;33.33;24.60;;;11.10;99.90;;;;;;5042031;28;20442;-81
2021/04/19 10:58:58;;;;;;;31.67;22.63;;;11.50;99.90;;;;;;5039255;28;20450;-81
2021/04/19 11:01:27;;;;;;;36.83;25.70;;;11.70;99.90;;;;;;5043142;28;20469;-80
2021/04/19 11:03:54;;;;;;;34.80;25.57;;;11.40;99.90;;;;;;5042281;28;20496;-80
2021/04/19 11:06:20;;;;;;;32.43;22.73;;;11.30;99.90;;;;;;5041704;28;20456;-80
2021/04/19 11:08:49;;;;;;;32.30;24.80;;;11.10;99.90;;;;;;5042131;28;20445;-80
2021/04/19 11:11:21;;;;;;;53.97;26.63;;;11.20;99.90;;;;;;5042335;28;20878;-80
2021/04/19 11:13:47;;;;;;;39.73;25.23;;;11.60;99.90;;;;;;5042611;28;20450;-80
2021/04/19 11:16:21;;;;;;;39.83;25.30;;;11.70;99.90;;;;;;5043749;28;20442;-80
2021/04/19 11:18:47;;;;;;;38.03;23.67;;;12.00;99.90;;;;;;5044405;28;20477;-80
2021/04/19 11:21:31;;;;;;;36.23;25.43;;;11.80;99.90;;;;;;5046060;28;20446;-80
2021/04/19 11:24:09;;;;;;;33.57;24.83;;;11.70;99.90;;;;;;5050061;28;20944;-79
2021/04/19 11:26:35;;;;;;;35.73;26.80;;;11.60;99.90;;;;;;5042260;28;20457;-80
2021/04/19 11:29:04;;;;;;;34.27;26.50;;;11.70;99.90;;;;;;5041715;28;20458;-79
2021/04/19 11:31:43;;;;;;;42.63;27.50;;;11.40;99.90;;;;;;5048358;28;20485;-80
2021/04/19 11:34:11;;;;;;;28.97;24.00;;;11.80;99.90;;;;;;5051698;28;20454;-79
2021/04/19 11:36:40;;;;;;;34.03;24.00;;;12.00;99.90;;;;;;5047457;28;20450;-80
2021/04/19 11:39:15;;;;;;;42.13;23.00;;;12.00;99.90;;;;;;5044526;28;20446;-80
2021/04/19 11:41:41;;;;;;;33.50;21.50;;;;;;;;;;5042287;28;20469;-79
2021/04/19 11:44:10;;;;;;;29.17;21.27;;;12.20;99.90;;;;;;5042650;28;20473;-80
2021/04/19 11:46:41;;;;;;;30.13;21.57;;;12.10;99.90;;;;;;5042616;28;20417;-81
2021/04/19 11:49:13;;;;;;;32.53;24.43;;;12.40;99.90;;;;;;5043162;28;20430;-80
2021/04/19 11:51:39;;;;;;;25.73;20.60;;;12.70;99.90;;;;;;5042743;28;20548;-80
2021/04/19 11:54:05;;;;;;;27.53;22.57;;;12.90;99.90;;;;;;5042433;28;20847;-80
2021/04/19 11:56:32;;;;;;;26.10;22.37;;;13.20;99.90;;;;;;5043005;28;20446;-80
2021/04/19 11:58:58;;;;;;;29.23;22.73;;;13.50;99.90;;;;;;5041661;28;20454;-80
2021/04/19 12:01:24;;;;;;;26.73;22.17;;;13.60;99.90;;;;;;5041497;28;20449;-81
2021/04/19 12:03:53;;;;;;;30.73;22.80;;;14.00;99.90;;;;;;5041089;28;20439;-80
2021/04/19 12:06:21;;;;;;;32.63;23.73;;;13.10;99.90;;;;;;5042702;28;20434;-79
2021/04/19 12:08:49;;;;;;;29.97;21.70;;;13.40;99.90;;;;;;5051787;28;20430;-79
2021/04/19 12:11:18;;;;;;;33.37;25.07;;;13.70;99.90;;;;;;5049525;28;20469;-79
2021/04/19 12:13:44;;;;;;;35.87;27.20;;;13.20;99.90;;;;;;5050492;28;20550;-79
2021/04/19 12:16:11;;;;;;;33.23;24.90;;;13.20;99.90;;;;;;5048580;28;20454;-79
2021/04/19 12:18:37;;;;;;;31.97;25.00;;;13.40;99.90;;;;;;5046335;28;20453;-80
2021/04/19 12:21:05;;;;;;;31.17;21.10;;;13.50;99.90;;;;;;5046042;28;20448;-79
2021/04/19 12:23:32;;;;;;;31.10;21.70;;;13.10;99.90;;;;;;5044085;28;20466;-79
2021/04/19 12:25:59;;;;;;;28.47;22.53;;;13.40;99.90;;;;;;5052333;28;20811;-79
2021/04/19 12:28:26;;;;;;;30.70;22.73;;;13.60;99.90;;;;;;5048017;28;20452;-80
2021/04/19 12:30:54;;;;;;;30.27;22.37;;;13.40;99.90;;;;;;5047438;28;20457;-79
2021/04/19 12:33:20;;;;;;;31.20;24.63;;;13.60;99.90;;;;;;5043893;28;20497;-83
2021/04/19 12:35:47;;;;;;;29.97;22.53;;;13.70;99.90;;;;;;5043598;28;20442;-80
2021/04/19 12:38:14;;;;;;;29.57;21.97;;;14.00;99.90;;;;;;5041831;28;20473;-80
2021/04/19 12:40:42;;;;;;;29.27;21.27;;;13.80;99.90;;;;;;5040474;28;20457;-80
2021/04/19 12:43:09;;;;;;;31.50;21.40;;;14.10;99.90;;;;;;5039468;28;20481;-79
2021/04/19 12:45:36;;;;;;;28.83;19.80;;;14.10;99.90;;;;;;5042014;28;20425;-81